sensor_id;sensor_type;location;lat;lon;timestamp;temperature;humidity
9410;DHT22;4744;52.576;13.568;2024-02-26T00:02:15;1.30;99.90
9410;DHT22;4744;52.576;13.568;2024-02-26T00:04:43;1.20;99.90
9410;DHT22;4744;52.576;13.568;2024-02-26T00:07:10;1.20;99.90
9410;DHT22;4744;52.576;13.568;2024-02-26T00:09:37;1.20;99.90
9410;DHT22;4744;52.576;13.568;2024-02-26T00:12:04;1.10;99.90
9410;DHT22;4744;52.576;13.568;2024-02-26T00:14:31;1.00;99.90
9410;DHT22;4744;52.576;13.568;2024-02-26T00:16:59;1.00;99.90
9410;DHT22;4744;52.576;13.568;2024-02-26T00:19:26;1.00;99.90
9410;DHT22;4744;52.576;13.568;2024-02-26T00:21:54;0.80;99.90
9410;DHT22;4744;52.576;13.568;2024-02-26T00:24:21;0.80;99.90
9410;DHT22;4744;52.576;13.568;2024-02-26T00:26:48;0.70;99.90
9410;DHT22;4744;52.576;13.568;2024-02-26T00:29:19;0.70;99.90
9410;DHT22;4744;52.576;13.568;2024-02-26T00:31:47;0.70;99.90
9410;DHT22;4744;52.576;13.568;2024-02-26T00:34:14;0.80;99.90
9410;DHT22;4744;52.576;13.568;2024-02-26T00:36:41;0.80;99.90
9410;DHT22;4744;52.576;13.568;2024-02-26T00:39:09;0.80;99.90
9410;DHT22;4744;52.576;13.568;2024-02-26T00:41:38;0.70;99.90
9410;DHT22;4744;52.576;13.568;2024-02-26T00:44:06;0.60;99.90
9410;DHT22;4744;52.576;13.568;2024-02-26T00:46:33;0.60;99.90
9410;DHT22;4744;52.576;13.568;2024-02-26T00:49:00;0.70;99.90
9410;DHT22;4744;52.576;13.568;2024-02-26T00:51:27;0.70;99.90
9410;DHT22;4744;52.576;13.568;2024-02-26T00:53:54;0.80;99.90
9410;DHT22;4744;52.576;13.568;2024-02-26T00:56:23;0.80;99.90
9410;DHT22;4744;52.576;13.568;2024-02-26T00:58:49;0.80;99.90
9410;DHT22;4744;52.576;13.568;2024-02-26T01:01:16;0.80;99.90
9410;DHT22;4744;52.576;13.568;2024-02-26T01:03:43;0.70;99.90
9410;DHT22;4744;52.576;13.568;2024-02-26T01:06:10;0.70;99.90
9410;DHT22;4744;52.576;13.568;2024-02-26T01:08:37;0.70;99.90
9410;DHT22;4744;52.576;13.568;2024-02-26T01:11:04;0.60;99.90
9410;DHT22;4744;52.576;13.568;2024-02-26T01:13:33;0.60;99.90
9410;DHT22;4744;52.576;13.568;2024-02-26T01:16:00;0.60;99.90
9410;DHT22;4744;52.576;13.568;2024-02-26T01:18:27;0.60;99.90
9410;DHT22;4744;52.576;13.568;2024-02-26T01:20:54;0.60;99.90
9410;DHT22;4744;52.576;13.568;2024-02-26T01:23:21;0.60;99.90
9410;DHT22;4744;52.576;13.568;2024-02-26T01:25:48;0.50;99.90
9410;DHT22;4744;52.576;13.568;2024-02-26T01:28:15;0.50;99.90
9410;DHT22;4744;52.576;13.568;2024-02-26T01:30:43;0.50;99.90
9410;DHT22;4744;52.576;13.568;2024-02-26T01:33:10;0.50;99.90
9410;DHT22;4744;52.576;13.568;2024-02-26T01:35:37;0.50;99.90
9410;DHT22;4744;52.576;13.568;2024-02-26T01:38:05;0.40;99.90
9410;DHT22;4744;52.576;13.568;2024-02-26T01:40:32;0.40;99.90
9410;DHT22;4744;52.576;13.568;2024-02-26T01:42:59;0.30;99.90
9410;DHT22;4744;52.576;13.568;2024-02-26T01:45:26;0.20;99.90
9410;DHT22;4744;52.576;13.568;2024-02-26T01:47:55;0.20;99.90
9410;DHT22;4744;52.576;13.568;2024-02-26T01:50:23;0.20;99.90
9410;DHT22;4744;52.576;13.568;2024-02-26T01:52:51;0.20;99.90
9410;DHT22;4744;52.576;13.568;2024-02-26T01:55:19;0.20;99.90
9410;DHT22;4744;52.576;13.568;2024-02-26T01:57:48;0.20;99.90
9410;DHT22;4744;52.576;13.568;2024-02-26T02:00:18;0.20;99.90
9410;DHT22;4744;52.576;13.568;2024-02-26T02:02:46;0.20;99.90
9410;DHT22;4744;52.576;13.568;2024-02-26T02:05:16;0.30;99.90
9410;DHT22;4744;52.576;13.568;2024-02-26T02:07:44;0.20;99.90
9410;DHT22;4744;52.576;13.568;2024-02-26T02:10:12;0.20;99.90
9410;DHT22;4744;52.576;13.568;2024-02-26T02:12:39;0.10;99.90
9410;DHT22;4744;52.576;13.568;2024-02-26T02:15:07;0.00;99.90
9410;DHT22;4744;52.576;13.568;2024-02-26T02:17:34;0.00;99.90
9410;DHT22;4744;52.576;13.568;2024-02-26T02:20:01;0.00;99.90
9410;DHT22;4744;52.576;13.568;2024-02-26T02:22:30;0.00;99.90
9410;DHT22;4744;52.576;13.568;2024-02-26T02:24:58;0.00;99.90
9410;DHT22;4744;52.576;13.568;2024-02-26T02:27:26;0.00;99.90
9410;DHT22;4744;52.576;13.568;2024-02-26T02:29:54;0.00;99.90
9410;DHT22;4744;52.576;13.568;2024-02-26T02:32:21;-0.10;99.90
9410;DHT22;4744;52.576;13.568;2024-02-26T02:34:49;-0.10;99.90
9410;DHT22;4744;52.576;13.568;2024-02-26T02:37:16;-0.10;99.90
9410;DHT22;4744;52.576;13.568;2024-02-26T02:39:45;0.00;99.90
9410;DHT22;4744;52.576;13.568;2024-02-26T02:42:12;0.00;99.90
9410;DHT22;4744;52.576;13.568;2024-02-26T02:44:39;-0.10;99.90
9410;DHT22;4744;52.576;13.568;2024-02-26T02:47:06;-0.10;99.90
9410;DHT22;4744;52.576;13.568;2024-02-26T02:49:32;-0.20;99.90
9410;DHT22;4744;52.576;13.568;2024-02-26T02:51:59;-0.20;99.90
9410;DHT22;4744;52.576;13.568;2024-02-26T02:54:26;-0.20;99.90
9410;DHT22;4744;52.576;13.568;2024-02-26T02:56:54;-0.30;99.90
9410;DHT22;4744;52.576;13.568;2024-02-26T02:59:22;-0.30;99.90
9410;DHT22;4744;52.576;13.568;2024-02-26T03:01:48;-0.40;99.90
9410;DHT22;4744;52.576;13.568;2024-02-26T03:04:16;-0.50;99.90
9410;DHT22;4744;52.576;13.568;2024-02-26T03:06:43;-0.50;99.90
9410;DHT22;4744;52.576;13.568;2024-02-26T03:09:10;-0.50;99.90
9410;DHT22;4744;52.576;13.568;2024-02-26T03:11:37;-0.50;99.90
9410;DHT22;4744;52.576;13.568;2024-02-26T03:14:06;-0.40;99.90
9410;DHT22;4744;52.576;13.568;2024-02-26T03:16:33;-0.50;99.90
9410;DHT22;4744;52.576;13.568;2024-02-26T03:19:00;-0.50;99.90
9410;DHT22;4744;52.576;13.568;2024-02-26T03:21:27;-0.40;99.90
9410;DHT22;4744;52.576;13.568;2024-02-26T03:23:54;-0.40;99.90
9410;DHT22;4744;52.576;13.568;2024-02-26T03:26:21;-0.40;99.90
9410;DHT22;4744;52.576;13.568;2024-02-26T03:28:48;-0.40;99.90
9410;DHT22;4744;52.576;13.568;2024-02-26T03:31:16;-0.40;99.90
9410;DHT22;4744;52.576;13.568;2024-02-26T03:33:43;-0.40;99.90
9410;DHT22;4744;52.576;13.568;2024-02-26T03:36:10;-0.40;99.90
9410;DHT22;4744;52.576;13.568;2024-02-26T03:38:37;-0.40;99.90
9410;DHT22;4744;52.576;13.568;2024-02-26T03:41:04;-0.40;99.90
9410;DHT22;4744;52.576;13.568;2024-02-26T03:43:31;-0.40;99.90
9410;DHT22;4744;52.576;13.568;2024-02-26T03:45:58;-0.40;99.90
9410;DHT22;4744;52.576;13.568;2024-02-26T03:48:27;-0.40;99.90
9410;DHT22;4744;52.576;13.568;2024-02-26T03:50:53;-0.40;99.90
9410;DHT22;4744;52.576;13.568;2024-02-26T03:53:20;-0.40;99.90
9410;DHT22;4744;52.576;13.568;2024-02-26T03:55:47;-0.40;99.90
9410;DHT22;4744;52.576;13.568;2024-02-26T03:58:14;-0.40;99.90
9410;DHT22;4744;52.576;13.568;2024-02-26T04:00:42;-0.40;99.90
9410;DHT22;4744;52.576;13.568;2024-02-26T04:03:09;-0.40;99.90
9410;DHT22;4744;52.576;13.568;2024-02-26T04:05:38;-0.40;99.90
9410;DHT22;4744;52.576;13.568;2024-02-26T04:08:05;-0.40;99.90
9410;DHT22;4744;52.576;13.568;2024-02-26T04:10:33;-0.30;99.90
9410;DHT22;4744;52.576;13.568;2024-02-26T04:13:04;-0.30;99.90
9410;DHT22;4744;52.576;13.568;2024-02-26T04:15:31;-0.30;99.90
9410;DHT22;4744;52.576;13.568;2024-02-26T04:17:59;-0.20;99.90
9410;DHT22;4744;52.576;13.568;2024-02-26T04:20:26;-0.30;99.90
9410;DHT22;4744;52.576;13.568;2024-02-26T04:22:54;-0.30;99.90
9410;DHT22;4744;52.576;13.568;2024-02-26T04:25:21;-0.30;99.90
9410;DHT22;4744;52.576;13.568;2024-02-26T04:27:48;-0.30;99.90
9410;DHT22;4744;52.576;13.568;2024-02-26T04:30:15;-0.30;99.90
9410;DHT22;4744;52.576;13.568;2024-02-26T04:32:42;-0.30;99.90
9410;DHT22;4744;52.576;13.568;2024-02-26T04:35:10;-0.30;99.90
9410;DHT22;4744;52.576;13.568;2024-02-26T04:37:36;-0.30;99.90
9410;DHT22;4744;52.576;13.568;2024-02-26T04:40:06;-0.30;99.90
9410;DHT22;4744;52.576;13.568;2024-02-26T04:42:33;-0.30;99.90
9410;DHT22;4744;52.576;13.568;2024-02-26T04:45:00;-0.30;99.90
9410;DHT22;4744;52.576;13.568;2024-02-26T04:47:27;-0.30;99.90
9410;DHT22;4744;52.576;13.568;2024-02-26T04:49:55;-0.30;99.90
9410;DHT22;4744;52.576;13.568;2024-02-26T04:52:22;-0.30;99.90
9410;DHT22;4744;52.576;13.568;2024-02-26T04:54:49;-0.30;99.90
9410;DHT22;4744;52.576;13.568;2024-02-26T04:57:17;-0.30;99.90
9410;DHT22;4744;52.576;13.568;2024-02-26T04:59:44;-0.30;99.90
9410;DHT22;4744;52.576;13.568;2024-02-26T05:02:11;-0.30;99.90
9410;DHT22;4744;52.576;13.568;2024-02-26T05:04:38;-0.30;99.90
9410;DHT22;4744;52.576;13.568;2024-02-26T05:07:05;-0.40;99.90
9410;DHT22;4744;52.576;13.568;2024-02-26T05:09:32;-0.40;99.90
9410;DHT22;4744;52.576;13.568;2024-02-26T05:11:59;-0.40;99.90
9410;DHT22;4744;52.576;13.568;2024-02-26T05:14:27;-0.40;99.90
9410;DHT22;4744;52.576;13.568;2024-02-26T05:16:54;-0.40;99.90
9410;DHT22;4744;52.576;13.568;2024-02-26T05:19:21;-0.40;99.90
9410;DHT22;4744;52.576;13.568;2024-02-26T05:21:48;-0.30;99.90
9410;DHT22;4744;52.576;13.568;2024-02-26T05:24:16;-0.30;99.90
9410;DHT22;4744;52.576;13.568;2024-02-26T05:26:43;-0.30;99.90
9410;DHT22;4744;52.576;13.568;2024-02-26T05:29:10;-0.30;99.90
9410;DHT22;4744;52.576;13.568;2024-02-26T05:31:38;-0.30;99.90
9410;DHT22;4744;52.576;13.568;2024-02-26T05:34:05;-0.20;99.90
9410;DHT22;4744;52.576;13.568;2024-02-26T05:36:32;-0.20;99.90
9410;DHT22;4744;52.576;13.568;2024-02-26T05:38:59;-0.20;99.90
9410;DHT22;4744;52.576;13.568;2024-02-26T05:41:26;-0.20;99.90
9410;DHT22;4744;52.576;13.568;2024-02-26T05:43:53;-0.20;99.90
9410;DHT22;4744;52.576;13.568;2024-02-26T05:46:20;-0.20;99.90
9410;DHT22;4744;52.576;13.568;2024-02-26T05:48:50;-0.30;99.90
9410;DHT22;4744;52.576;13.568;2024-02-26T05:51:17;-0.20;99.90
9410;DHT22;4744;52.576;13.568;2024-02-26T05:53:44;-0.20;99.90
9410;DHT22;4744;52.576;13.568;2024-02-26T05:56:12;-0.30;99.90
9410;DHT22;4744;52.576;13.568;2024-02-26T05:58:39;-0.30;99.90
9410;DHT22;4744;52.576;13.568;2024-02-26T06:01:06;-0.20;99.90
9410;DHT22;4744;52.576;13.568;2024-02-26T06:03:33;-0.20;99.90
9410;DHT22;4744;52.576;13.568;2024-02-26T06:06:01;-0.20;99.90
9410;DHT22;4744;52.576;13.568;2024-02-26T06:08:28;-0.10;99.90
9410;DHT22;4744;52.576;13.568;2024-02-26T06:10:55;-0.20;99.90
9410;DHT22;4744;52.576;13.568;2024-02-26T06:13:21;-0.10;99.90
9410;DHT22;4744;52.576;13.568;2024-02-26T06:15:48;-0.10;99.90
9410;DHT22;4744;52.576;13.568;2024-02-26T06:18:15;-0.10;99.90
9410;DHT22;4744;52.576;13.568;2024-02-26T06:20:42;-0.10;99.90
9410;DHT22;4744;52.576;13.568;2024-02-26T06:23:10;-0.10;99.90
9410;DHT22;4744;52.576;13.568;2024-02-26T06:25:37;-0.10;99.90
9410;DHT22;4744;52.576;13.568;2024-02-26T06:28:05;-0.10;99.90
9410;DHT22;4744;52.576;13.568;2024-02-26T06:30:32;-0.10;99.90
9410;DHT22;4744;52.576;13.568;2024-02-26T06:32:59;-0.10;99.90
9410;DHT22;4744;52.576;13.568;2024-02-26T06:35:26;-0.10;99.90
9410;DHT22;4744;52.576;13.568;2024-02-26T06:37:53;-0.10;99.90
9410;DHT22;4744;52.576;13.568;2024-02-26T06:40:21;-0.10;99.90
9410;DHT22;4744;52.576;13.568;2024-02-26T06:42:48;0.00;99.90
9410;DHT22;4744;52.576;13.568;2024-02-26T06:45:15;0.00;99.90
9410;DHT22;4744;52.576;13.568;2024-02-26T06:47:42;0.10;99.90
9410;DHT22;4744;52.576;13.568;2024-02-26T06:50:12;0.20;99.90
9410;DHT22;4744;52.576;13.568;2024-02-26T06:52:39;0.30;99.90
9410;DHT22;4744;52.576;13.568;2024-02-26T06:55:06;0.30;99.90
9410;DHT22;4744;52.576;13.568;2024-02-26T06:57:35;0.40;99.90
9410;DHT22;4744;52.576;13.568;2024-02-26T07:00:02;0.40;99.90
9410;DHT22;4744;52.576;13.568;2024-02-26T07:02:30;0.50;99.90
9410;DHT22;4744;52.576;13.568;2024-02-26T07:04:57;0.60;99.90
9410;DHT22;4744;52.576;13.568;2024-02-26T07:07:24;0.60;99.90
9410;DHT22;4744;52.576;13.568;2024-02-26T07:09:51;0.80;99.90
9410;DHT22;4744;52.576;13.568;2024-02-26T07:12:18;0.80;99.90
9410;DHT22;4744;52.576;13.568;2024-02-26T07:14:48;0.90;99.90
9410;DHT22;4744;52.576;13.568;2024-02-26T07:17:16;1.00;99.90
9410;DHT22;4744;52.576;13.568;2024-02-26T07:19:42;1.10;99.90
9410;DHT22;4744;52.576;13.568;2024-02-26T07:22:09;1.20;99.90
9410;DHT22;4744;52.576;13.568;2024-02-26T07:24:36;1.40;99.90
9410;DHT22;4744;52.576;13.568;2024-02-26T07:27:03;1.60;99.90
9410;DHT22;4744;52.576;13.568;2024-02-26T07:29:30;1.80;99.90
9410;DHT22;4744;52.576;13.568;2024-02-26T07:31:59;2.00;99.90
9410;DHT22;4744;52.576;13.568;2024-02-26T07:34:26;2.20;99.90
9410;DHT22;4744;52.576;13.568;2024-02-26T07:36:54;2.40;99.90
9410;DHT22;4744;52.576;13.568;2024-02-26T07:39:21;2.70;99.90
9410;DHT22;4744;52.576;13.568;2024-02-26T07:41:48;2.80;99.90
9410;DHT22;4744;52.576;13.568;2024-02-26T07:44:17;2.90;99.90
9410;DHT22;4744;52.576;13.568;2024-02-26T07:46:44;3.00;99.90
9410;DHT22;4744;52.576;13.568;2024-02-26T07:49:12;3.00;99.90
9410;DHT22;4744;52.576;13.568;2024-02-26T07:51:39;3.10;99.90
9410;DHT22;4744;52.576;13.568;2024-02-26T07:54:06;3.10;99.90
9410;DHT22;4744;52.576;13.568;2024-02-26T07:56:33;3.10;99.90
9410;DHT22;4744;52.576;13.568;2024-02-26T07:59:00;3.10;99.90
9410;DHT22;4744;52.576;13.568;2024-02-26T08:01:27;3.20;99.90
9410;DHT22;4744;52.576;13.568;2024-02-26T08:03:53;3.20;99.90
9410;DHT22;4744;52.576;13.568;2024-02-26T08:06:23;3.30;99.90
9410;DHT22;4744;52.576;13.568;2024-02-26T08:08:50;3.30;99.90
9410;DHT22;4744;52.576;13.568;2024-02-26T08:11:19;3.50;99.90
9410;DHT22;4744;52.576;13.568;2024-02-26T08:13:48;3.60;99.90
9410;DHT22;4744;52.576;13.568;2024-02-26T08:16:15;3.80;99.90
9410;DHT22;4744;52.576;13.568;2024-02-26T08:18:42;3.90;99.90
9410;DHT22;4744;52.576;13.568;2024-02-26T08:21:09;4.00;99.10
9410;DHT22;4744;52.576;13.568;2024-02-26T08:23:37;4.10;98.20
9410;DHT22;4744;52.576;13.568;2024-02-26T08:26:04;4.10;98.00
9410;DHT22;4744;52.576;13.568;2024-02-26T08:28:32;4.20;98.20
9410;DHT22;4744;52.576;13.568;2024-02-26T08:30:59;4.20;98.40
9410;DHT22;4744;52.576;13.568;2024-02-26T08:33:26;4.30;98.50
9410;DHT22;4744;52.576;13.568;2024-02-26T08:35:54;4.40;98.30
9410;DHT22;4744;52.576;13.568;2024-02-26T08:38:20;4.50;97.90
9410;DHT22;4744;52.576;13.568;2024-02-26T08:40:49;4.50;97.60
9410;DHT22;4744;52.576;13.568;2024-02-26T08:43:16;4.70;97.30
9410;DHT22;4744;52.576;13.568;2024-02-26T08:45:43;4.70;96.80
9410;DHT22;4744;52.576;13.568;2024-02-26T08:48:10;4.90;96.30
9410;DHT22;4744;52.576;13.568;2024-02-26T08:50:36;5.00;96.20
9410;DHT22;4744;52.576;13.568;2024-02-26T08:53:04;5.30;95.80
9410;DHT22;4744;52.576;13.568;2024-02-26T08:55:31;5.50;94.90
9410;DHT22;4744;52.576;13.568;2024-02-26T08:57:59;5.60;93.70
9410;DHT22;4744;52.576;13.568;2024-02-26T09:00:26;5.80;92.20
9410;DHT22;4744;52.576;13.568;2024-02-26T09:02:53;5.90;92.50
9410;DHT22;4744;52.576;13.568;2024-02-26T09:05:20;6.00;91.50
9410;DHT22;4744;52.576;13.568;2024-02-26T09:07:47;6.20;91.00
9410;DHT22;4744;52.576;13.568;2024-02-26T09:10:14;6.40;89.90
9410;DHT22;4744;52.576;13.568;2024-02-26T09:12:40;6.60;89.60
9410;DHT22;4744;52.576;13.568;2024-02-26T09:15:09;6.80;89.00
9410;DHT22;4744;52.576;13.568;2024-02-26T09:17:37;7.00;88.10
9410;DHT22;4744;52.576;13.568;2024-02-26T09:20:05;7.20;86.80
9410;DHT22;4744;52.576;13.568;2024-02-26T09:22:34;7.20;87.00
9410;DHT22;4744;52.576;13.568;2024-02-26T09:25:04;7.40;86.00
9410;DHT22;4744;52.576;13.568;2024-02-26T09:27:31;7.50;85.80
9410;DHT22;4744;52.576;13.568;2024-02-26T09:29:58;7.50;85.60
9410;DHT22;4744;52.576;13.568;2024-02-26T09:32:26;7.50;85.70
9410;DHT22;4744;52.576;13.568;2024-02-26T09:34:53;7.50;85.50
9410;DHT22;4744;52.576;13.568;2024-02-26T09:37:20;7.50;84.90
9410;DHT22;4744;52.576;13.568;2024-02-26T09:39:47;7.60;84.00
9410;DHT22;4744;52.576;13.568;2024-02-26T09:42:15;7.50;83.60
9410;DHT22;4744;52.576;13.568;2024-02-26T09:44:45;7.60;84.00
9410;DHT22;4744;52.576;13.568;2024-02-26T09:49:42;7.70;83.90
9410;DHT22;4744;52.576;13.568;2024-02-26T09:52:09;7.70;84.00
9410;DHT22;4744;52.576;13.568;2024-02-26T09:54:36;7.80;83.70
9410;DHT22;4744;52.576;13.568;2024-02-26T09:57:03;8.00;81.60
9410;DHT22;4744;52.576;13.568;2024-02-26T09:59:39;8.10;81.80
9410;DHT22;4744;52.576;13.568;2024-02-26T10:02:09;8.30;80.60
9410;DHT22;4744;52.576;13.568;2024-02-26T10:04:38;8.50;80.30
9410;DHT22;4744;52.576;13.568;2024-02-26T10:07:10;8.60;80.50
9410;DHT22;4744;52.576;13.568;2024-02-26T10:09:37;8.80;80.00
9410;DHT22;4744;52.576;13.568;2024-02-26T10:12:04;8.90;78.60
9410;DHT22;4744;52.576;13.568;2024-02-26T10:14:31;9.00;78.10
9410;DHT22;4744;52.576;13.568;2024-02-26T10:16:59;9.20;78.20
9410;DHT22;4744;52.576;13.568;2024-02-26T10:19:27;9.40;77.20
9410;DHT22;4744;52.576;13.568;2024-02-26T10:21:58;9.40;75.80
9410;DHT22;4744;52.576;13.568;2024-02-26T10:24:28;9.40;75.20
9410;DHT22;4744;52.576;13.568;2024-02-26T10:26:56;9.60;74.90
9410;DHT22;4744;52.576;13.568;2024-02-26T10:29:24;9.60;74.50
9410;DHT22;4744;52.576;13.568;2024-02-26T10:31:52;9.60;74.80
9410;DHT22;4744;52.576;13.568;2024-02-26T10:34:19;9.70;74.70
9410;DHT22;4744;52.576;13.568;2024-02-26T10:36:46;9.70;74.70
9410;DHT22;4744;52.576;13.568;2024-02-26T10:39:13;9.80;74.60
9410;DHT22;4744;52.576;13.568;2024-02-26T10:41:43;9.90;74.20
9410;DHT22;4744;52.576;13.568;2024-02-26T10:44:11;9.90;74.00
9410;DHT22;4744;52.576;13.568;2024-02-26T10:46:38;9.90;72.40
9410;DHT22;4744;52.576;13.568;2024-02-26T10:49:13;9.90;73.80
9410;DHT22;4744;52.576;13.568;2024-02-26T10:51:43;9.90;73.00
9410;DHT22;4744;52.576;13.568;2024-02-26T10:54:15;10.00;73.60
9410;DHT22;4744;52.576;13.568;2024-02-26T10:56:43;10.10;72.90
9410;DHT22;4744;52.576;13.568;2024-02-26T10:59:12;10.20;72.40
9410;DHT22;4744;52.576;13.568;2024-02-26T11:01:39;10.30;71.40
9410;DHT22;4744;52.576;13.568;2024-02-26T11:04:10;10.40;71.70
9410;DHT22;4744;52.576;13.568;2024-02-26T11:06:38;10.50;71.20
9410;DHT22;4744;52.576;13.568;2024-02-26T11:09:06;10.60;71.00
9410;DHT22;4744;52.576;13.568;2024-02-26T11:11:38;10.70;70.90
9410;DHT22;4744;52.576;13.568;2024-02-26T11:14:08;10.80;70.60
9410;DHT22;4744;52.576;13.568;2024-02-26T11:16:38;10.80;70.90
9410;DHT22;4744;52.576;13.568;2024-02-26T11:19:06;10.80;70.10
9410;DHT22;4744;52.576;13.568;2024-02-26T11:21:35;10.80;70.10
9410;DHT22;4744;52.576;13.568;2024-02-26T11:24:08;10.90;70.60
9410;DHT22;4744;52.576;13.568;2024-02-26T11:26:39;11.00;69.70
9410;DHT22;4744;52.576;13.568;2024-02-26T11:29:09;11.00;68.40
9410;DHT22;4744;52.576;13.568;2024-02-26T11:31:38;10.90;69.20
9410;DHT22;4744;52.576;13.568;2024-02-26T11:34:06;10.90;69.00
9410;DHT22;4744;52.576;13.568;2024-02-26T11:36:34;10.90;70.20
9410;DHT22;4744;52.576;13.568;2024-02-26T11:39:01;11.00;69.70
9410;DHT22;4744;52.576;13.568;2024-02-26T11:41:28;11.00;68.00
9410;DHT22;4744;52.576;13.568;2024-02-26T11:43:59;10.90;68.60
9410;DHT22;4744;52.576;13.568;2024-02-26T11:46:29;11.00;69.20
9410;DHT22;4744;52.576;13.568;2024-02-26T11:48:59;10.90;69.40
9410;DHT22;4744;52.576;13.568;2024-02-26T11:51:27;10.80;69.20
9410;DHT22;4744;52.576;13.568;2024-02-26T11:53:54;10.80;68.70
9410;DHT22;4744;52.576;13.568;2024-02-26T11:56:23;10.70;69.40
9410;DHT22;4744;52.576;13.568;2024-02-26T11:58:56;10.70;69.20
9410;DHT22;4744;52.576;13.568;2024-02-26T12:01:41;10.70;69.90
9410;DHT22;4744;52.576;13.568;2024-02-26T12:04:12;10.70;70.30
9410;DHT22;4744;52.576;13.568;2024-02-26T12:06:42;10.80;69.80
9410;DHT22;4744;52.576;13.568;2024-02-26T12:09:09;10.90;69.40
9410;DHT22;4744;52.576;13.568;2024-02-26T12:11:37;10.90;69.50
9410;DHT22;4744;52.576;13.568;2024-02-26T12:14:07;10.90;67.50
9410;DHT22;4744;52.576;13.568;2024-02-26T12:16:39;10.90;68.30
9410;DHT22;4744;52.576;13.568;2024-02-26T12:19:09;10.90;68.00
9410;DHT22;4744;52.576;13.568;2024-02-26T12:21:37;10.90;67.60
9410;DHT22;4744;52.576;13.568;2024-02-26T12:24:10;10.80;66.60
9410;DHT22;4744;52.576;13.568;2024-02-26T12:26:38;10.80;67.20
9410;DHT22;4744;52.576;13.568;2024-02-26T12:29:05;10.80;67.00
9410;DHT22;4744;52.576;13.568;2024-02-26T12:31:32;10.80;66.80
9410;DHT22;4744;52.576;13.568;2024-02-26T12:34:01;10.80;67.20
9410;DHT22;4744;52.576;13.568;2024-02-26T12:36:27;10.90;65.90
9410;DHT22;4744;52.576;13.568;2024-02-26T12:38:54;10.90;65.90
9410;DHT22;4744;52.576;13.568;2024-02-26T12:41:22;10.80;65.70
9410;DHT22;4744;52.576;13.568;2024-02-26T12:43:49;10.80;66.00
9410;DHT22;4744;52.576;13.568;2024-02-26T12:46:16;10.90;66.50
9410;DHT22;4744;52.576;13.568;2024-02-26T12:48:43;10.90;65.10
9410;DHT22;4744;52.576;13.568;2024-02-26T12:51:14;10.90;65.40
9410;DHT22;4744;52.576;13.568;2024-02-26T12:53:41;11.00;65.00
9410;DHT22;4744;52.576;13.568;2024-02-26T12:56:09;11.00;64.60
9410;DHT22;4744;52.576;13.568;2024-02-26T12:58:39;11.00;64.10
9410;DHT22;4744;52.576;13.568;2024-02-26T13:01:07;11.00;64.40
9410;DHT22;4744;52.576;13.568;2024-02-26T13:03:35;11.00;64.10
9410;DHT22;4744;52.576;13.568;2024-02-26T13:06:03;11.10;63.00
9410;DHT22;4744;52.576;13.568;2024-02-26T13:08:33;11.00;62.50
9410;DHT22;4744;52.576;13.568;2024-02-26T13:11:00;11.00;62.40
9410;DHT22;4744;52.576;13.568;2024-02-26T13:13:27;11.00;62.80
9410;DHT22;4744;52.576;13.568;2024-02-26T13:16:01;11.00;62.70
9410;DHT22;4744;52.576;13.568;2024-02-26T13:18:29;10.90;61.90
9410;DHT22;4744;52.576;13.568;2024-02-26T13:21:09;10.80;62.10
9410;DHT22;4744;52.576;13.568;2024-02-26T13:23:39;10.70;63.30
9410;DHT22;4744;52.576;13.568;2024-02-26T13:26:07;10.70;63.00
9410;DHT22;4744;52.576;13.568;2024-02-26T13:28:34;10.70;62.20
9410;DHT22;4744;52.576;13.568;2024-02-26T13:31:02;10.70;62.30
9410;DHT22;4744;52.576;13.568;2024-02-26T13:33:30;10.60;62.80
9410;DHT22;4744;52.576;13.568;2024-02-26T13:35:58;10.60;62.30
9410;DHT22;4744;52.576;13.568;2024-02-26T13:38:25;10.50;61.60
9410;DHT22;4744;52.576;13.568;2024-02-26T13:40:54;10.40;61.60
9410;DHT22;4744;52.576;13.568;2024-02-26T13:43:21;10.30;62.40
9410;DHT22;4744;52.576;13.568;2024-02-26T13:45:48;10.30;62.90
9410;DHT22;4744;52.576;13.568;2024-02-26T13:48:15;10.30;63.30
9410;DHT22;4744;52.576;13.568;2024-02-26T13:50:43;10.20;63.10
9410;DHT22;4744;52.576;13.568;2024-02-26T13:53:10;10.20;64.20
9410;DHT22;4744;52.576;13.568;2024-02-26T13:55:38;10.20;64.40
9410;DHT22;4744;52.576;13.568;2024-02-26T13:58:11;10.20;64.40
9410;DHT22;4744;52.576;13.568;2024-02-26T14:00:39;10.10;64.00
9410;DHT22;4744;52.576;13.568;2024-02-26T14:03:07;10.10;64.60
9410;DHT22;4744;52.576;13.568;2024-02-26T14:05:34;10.10;64.80
9410;DHT22;4744;52.576;13.568;2024-02-26T14:08:01;10.10;63.50
9410;DHT22;4744;52.576;13.568;2024-02-26T14:10:28;10.00;63.80
9410;DHT22;4744;52.576;13.568;2024-02-26T14:12:56;10.00;62.70
9410;DHT22;4744;52.576;13.568;2024-02-26T14:15:24;10.00;63.70
9410;DHT22;4744;52.576;13.568;2024-02-26T14:17:51;10.00;64.20
9410;DHT22;4744;52.576;13.568;2024-02-26T14:20:21;10.00;65.10
9410;DHT22;4744;52.576;13.568;2024-02-26T14:22:49;10.00;64.70
9410;DHT22;4744;52.576;13.568;2024-02-26T14:25:17;10.00;64.80
9410;DHT22;4744;52.576;13.568;2024-02-26T14:27:43;10.00;65.30
9410;DHT22;4744;52.576;13.568;2024-02-26T14:30:11;10.00;65.30
9410;DHT22;4744;52.576;13.568;2024-02-26T14:32:39;10.00;64.60
9410;DHT22;4744;52.576;13.568;2024-02-26T14:35:07;10.00;64.50
9410;DHT22;4744;52.576;13.568;2024-02-26T14:37:34;10.00;63.60
9410;DHT22;4744;52.576;13.568;2024-02-26T14:40:01;9.90;64.40
9410;DHT22;4744;52.576;13.568;2024-02-26T14:42:29;9.90;64.10
9410;DHT22;4744;52.576;13.568;2024-02-26T14:44:56;9.80;64.90
9410;DHT22;4744;52.576;13.568;2024-02-26T14:47:22;9.80;64.80
9410;DHT22;4744;52.576;13.568;2024-02-26T14:49:51;9.80;64.50
9410;DHT22;4744;52.576;13.568;2024-02-26T14:52:18;9.70;65.60
9410;DHT22;4744;52.576;13.568;2024-02-26T14:54:45;9.70;65.70
9410;DHT22;4744;52.576;13.568;2024-02-26T14:57:11;9.60;65.20
9410;DHT22;4744;52.576;13.568;2024-02-26T14:59:39;9.60;65.50
9410;DHT22;4744;52.576;13.568;2024-02-26T15:02:06;9.60;65.90
9410;DHT22;4744;52.576;13.568;2024-02-26T15:04:35;9.50;66.30
9410;DHT22;4744;52.576;13.568;2024-02-26T15:07:03;9.50;65.80
9410;DHT22;4744;52.576;13.568;2024-02-26T15:09:30;9.40;66.50
9410;DHT22;4744;52.576;13.568;2024-02-26T15:11:57;9.40;66.60
9410;DHT22;4744;52.576;13.568;2024-02-26T15:14:24;9.40;67.00
9410;DHT22;4744;52.576;13.568;2024-02-26T15:16:52;9.40;67.70
9410;DHT22;4744;52.576;13.568;2024-02-26T15:19:19;9.30;68.20
9410;DHT22;4744;52.576;13.568;2024-02-26T15:21:46;9.30;67.90
9410;DHT22;4744;52.576;13.568;2024-02-26T15:24:15;9.20;68.00
9410;DHT22;4744;52.576;13.568;2024-02-26T15:26:43;9.20;68.40
9410;DHT22;4744;52.576;13.568;2024-02-26T15:29:10;9.20;68.70
9410;DHT22;4744;52.576;13.568;2024-02-26T15:31:37;9.20;68.90
9410;DHT22;4744;52.576;13.568;2024-02-26T15:34:04;9.20;69.30
9410;DHT22;4744;52.576;13.568;2024-02-26T15:36:31;9.20;69.50
9410;DHT22;4744;52.576;13.568;2024-02-26T15:38:58;9.10;69.70
9410;DHT22;4744;52.576;13.568;2024-02-26T15:41:26;9.10;70.20
9410;DHT22;4744;52.576;13.568;2024-02-26T15:43:53;9.10;70.30
9410;DHT22;4744;52.576;13.568;2024-02-26T15:46:20;9.00;70.60
9410;DHT22;4744;52.576;13.568;2024-02-26T15:48:47;9.00;71.10
9410;DHT22;4744;52.576;13.568;2024-02-26T15:51:19;9.00;71.10
9410;DHT22;4744;52.576;13.568;2024-02-26T15:53:46;9.00;71.40
9410;DHT22;4744;52.576;13.568;2024-02-26T15:56:14;8.90;71.80
9410;DHT22;4744;52.576;13.568;2024-02-26T15:58:42;8.90;72.10
9410;DHT22;4744;52.576;13.568;2024-02-26T16:01:09;9.00;72.20